Luthersburg, PA (15848)

4:01 PM EDT on September 02, 2015 (GMT -0400)
Eastern Avenue | | Change Station
CLOSE
Current Station
Personal Weather Station
Location: DuBois, PA
Elevation: 1457 ft
Nearby Weather Stations

Elev 1457 ft 41.12 °N, 78.74 °W | Updated 47 seconds ago

Overcast
Overcast
81.9 °F
Feels Like 90 °F
N
0.9
Wind Variable Wind from NNE
Gusts 2.5 mph

Today
High -- | Low -- °F
--% Chance of Precip.
Yesterday
High -- | Low -- °F
Precip. -- in
6:42 AM 7:46 PM
Waning Gibbous, 77% visible
Pressure 30.01 in
Visibility 3.0 miles
Clouds Mostly Cloudy 11000 ft
Heat Index 90 °F
Dew Point 77 °F
Humidity 84%
Rainfall 0.02 in
Snow Depth Not available.
UV 2.0 out of 12
Pollen 10.00 out of 12
Air Quality Not available.
Flu Activity Not available.
METAR KDUJ 021953Z AUTO 00000KT 3SM VCTS HZ BKN110 26/21 A3005 RMK AO2 LTG DSNT NW RAB07E29 TSB1858E20 SLP162 P0021 T02560211
Pressure 30.01 in
Visibility 3.0 miles
Clouds Mostly Cloudy 11000 ft
Heat Index 90 °F
Dew Point 77 °F
Humidity 84%
Rainfall 0.02 in
Snow Depth Not available.
UV 2.0 out of 12
Pollen 10.00 out of 12
Air Quality Not available.
Flu Activity Not available.
METAR KDUJ 021953Z AUTO 00000KT 3SM VCTS HZ BKN110 26/21 A3005 RMK AO2 LTG DSNT NW RAB07E29 TSB1858E20 SLP162 P0021 T02560211
Nowcast | as of 12:59 PM EDT on September 2, 2015

Isolated showers and thunderstorms will be across south central Pennsylvania this afternoon. Most of the activity will be south of a Johnstown...Chambersburg line. A brief heavy downpour will be possible. The showers and storms are moving southeast at 15 mph.

×

10-Day Weather Forecast

×

Almanac

Astronomy

Sep. 02, 2015 Rise Set
Actual Time
Civil Twilight
Nautical Twilight
Astronomical Twilight
Moon
Length of Visible Light
Length of Day
Tomorrow will be .
, % of the Moon is Illuminated

Today's Extremes

State Highs State Lows

Community

WunderPhotos

Upload Photos

1,851,804 photos uploaded!

WunderBlogs® & News

Nearby

Air Quality

  Air Quality AQ Index Pollutant
Not available.

Snow Depth

Station Depth Elevation

Earthquake Activity

City Distance Mag. Time & Date
Minimum magnitude displayed is 2.5.

Coastal Water Temperatures

Place Temperature

Stations

Nearby Weather Stations

Station Location Temp. Windchill Dew Point Humidity Wind Precip. Elev Updated Type